createdAt,value
2024-03-10T00:01:36.320Z,68.82
2024-03-10T00:04:38.120Z,69.28
2024-03-10T00:07:39.887Z,69.62
2024-03-10T00:10:41.670Z,69.35
2024-03-10T00:13:45.123Z,69.62
2024-03-10T00:16:46.973Z,69.65
2024-03-10T00:19:48.768Z,69.44
2024-03-10T00:22:52.471Z,69.31
2024-03-10T00:25:54.829Z,69.88
2024-03-10T00:28:57.970Z,69.59
2024-03-10T00:31:59.819Z,69.64
2024-03-10T00:35:02.099Z,69.68
2024-03-10T00:38:04.219Z,69.20
2024-03-10T00:41:06.069Z,69.08
2024-03-10T00:44:09.238Z,69.34
2024-03-10T00:47:12.071Z,69.60
2024-03-10T00:50:13.964Z,69.93
2024-03-10T00:53:16.296Z,69.77
2024-03-10T00:56:18.250Z,69.85
2024-03-10T00:59:21.602Z,69.82
2024-03-10T01:02:24.098Z,70.15
2024-03-10T01:05:26.681Z,70.20
2024-03-10T01:08:28.538Z,70.68
2024-03-10T01:11:30.420Z,70.63
2024-03-10T01:14:33.745Z,70.25
2024-03-10T01:17:36.068Z,70.81
2024-03-10T01:20:37.937Z,70.95
2024-03-10T01:23:39.767Z,71.18
2024-03-10T01:26:42.523Z,71.80
2024-03-10T01:29:45.648Z,72.08
2024-03-10T01:32:47.577Z,72.21
2024-03-10T01:35:49.358Z,72.33
2024-03-10T01:38:51.189Z,72.80
2024-03-10T01:41:53.024Z,72.54
2024-03-10T01:44:56.125Z,72.24
2024-03-10T01:47:57.912Z,72.18
2024-03-10T01:50:59.877Z,72.13
2024-03-10T01:54:02.820Z,72.27
2024-03-10T01:57:06.459Z,72.23
2024-03-10T02:00:11.295Z,72.27
2024-03-10T02:03:13.460Z,72.32
2024-03-10T02:06:15.213Z,72.27
2024-03-10T02:09:17.313Z,72.10
2024-03-10T02:12:19.182Z,72.54
2024-03-10T02:15:22.636Z,72.37
2024-03-10T02:18:24.722Z,72.24
2024-03-10T02:21:26.589Z,72.22
2024-03-10T02:24:33.933Z,72.60
2024-03-10T02:27:37.066Z,72.85
2024-03-10T02:30:38.879Z,72.90
2024-03-10T02:33:40.653Z,72.47
2024-03-10T02:36:42.450Z,72.48
2024-03-10T02:39:44.198Z,72.19
2024-03-10T02:42:47.404Z,72.24
2024-03-10T02:45:49.192Z,72.04
2024-03-10T02:48:50.970Z,72.11
2024-03-10T02:51:52.742Z,72.11
2024-03-10T02:54:54.537Z,72.05
2024-03-10T02:57:57.660Z,72.20
2024-03-10T03:00:59.435Z,72.42
2024-03-10T03:04:01.211Z,72.56
2024-03-10T03:07:03.152Z,72.61
2024-03-10T03:10:05.574Z,72.56
2024-03-10T03:13:08.684Z,72.72
2024-03-10T03:16:10.582Z,72.07
2024-03-10T03:19:12.351Z,72.58
2024-03-10T03:22:14.129Z,72.51
2024-03-10T03:25:16.303Z,72.83
2024-03-10T03:28:19.416Z,72.86
2024-03-10T03:31:21.203Z,73.16
2024-03-10T03:34:23.023Z,73.14
2024-03-10T03:37:24.803Z,73.10
2024-03-10T03:40:26.589Z,73.07
2024-03-10T03:43:29.700Z,73.14
2024-03-10T03:46:31.632Z,73.36
2024-03-10T03:49:33.390Z,73.50
2024-03-10T03:52:35.151Z,73.78
2024-03-10T03:55:36.899Z,73.68
2024-03-10T03:58:40.034Z,74.11
2024-03-10T04:01:41.831Z,74.34
2024-03-10T04:04:43.819Z,74.43
2024-03-10T04:07:45.676Z,74.64
2024-03-10T04:10:48.419Z,74.90
2024-03-10T04:13:52.186Z,74.86
2024-03-10T04:16:53.934Z,75.15
2024-03-10T04:19:55.804Z,75.07
2024-03-10T04:22:57.659Z,75.03
2024-03-10T04:25:59.454Z,75.48
2024-03-10T04:29:02.696Z,75.28
2024-03-10T04:32:04.965Z,75.51
2024-03-10T04:35:07.660Z,75.12
2024-03-10T04:38:09.845Z,75.27
2024-03-10T04:41:11.868Z,74.97
2024-03-10T04:44:15.117Z,75.04
2024-03-10T04:47:16.946Z,75.22
2024-03-10T04:50:18.709Z,75.56
2024-03-10T04:53:20.503Z,76.29
2024-03-10T04:56:22.291Z,76.36
2024-03-10T04:59:25.501Z,76.44
2024-03-10T05:02:27.617Z,76.56
2024-03-10T05:05:29.451Z,76.47
2024-03-10T05:08:31.251Z,76.54
2024-03-10T05:11:33.475Z,76.16
2024-03-10T05:14:36.859Z,76.23
2024-03-10T05:17:39.230Z,76.07
2024-03-10T05:20:41.257Z,76.48
2024-03-10T05:23:43.118Z,76.24
2024-03-10T05:26:44.902Z,76.36
2024-03-10T05:29:48.009Z,75.95
2024-03-10T05:32:49.798Z,76.17
2024-03-10T05:35:51.531Z,76.06
2024-03-10T05:38:53.349Z,75.98
2024-03-10T05:41:55.132Z,76.67
2024-03-10T05:44:58.226Z,76.96
2024-03-10T05:48:00.002Z,76.97
2024-03-10T05:51:01.952Z,76.85
2024-03-10T05:54:03.859Z,77.59
2024-03-10T05:57:05.967Z,77.19
2024-03-10T06:00:10.172Z,77.39
2024-03-10T06:03:11.978Z,77.03
2024-03-10T06:06:13.741Z,76.98
2024-03-10T06:09:15.499Z,76.64
2024-03-10T06:12:17.406Z,77.08
2024-03-10T06:15:20.532Z,77.30
2024-03-10T06:18:22.351Z,77.65
2024-03-10T06:21:25.551Z,77.51
2024-03-10T06:24:27.409Z,77.56
2024-03-10T06:27:29.193Z,77.56
2024-03-10T06:30:32.358Z,77.67
2024-03-10T06:33:34.639Z,77.51
2024-03-10T06:36:36.501Z,77.46
2024-03-10T06:39:38.512Z,77.22
2024-03-10T06:42:42.787Z,77.47
2024-03-10T06:45:47.324Z,76.95
2024-03-10T06:48:49.183Z,77.08
2024-03-10T06:51:50.923Z,77.01
2024-03-10T06:54:52.655Z,77.70
2024-03-10T06:57:54.451Z,78.01
2024-03-10T07:00:57.609Z,77.74
2024-03-10T07:03:59.394Z,78.05
2024-03-10T07:07:01.142Z,78.07
2024-03-10T07:10:02.916Z,78.43
2024-03-10T07:13:05.196Z,79.21
2024-03-10T07:16:08.444Z,79.76
2024-03-10T07:19:10.222Z,79.06
2024-03-10T07:22:12.036Z,79.29
2024-03-10T07:25:14.184Z,79.96
2024-03-10T07:28:16.028Z,80.82
2024-03-10T07:31:19.165Z,80.56
2024-03-10T07:34:20.897Z,81.00
2024-03-10T07:37:22.667Z,81.14
2024-03-10T07:40:24.656Z,81.53
2024-03-10T07:43:26.424Z,81.90
2024-03-10T07:46:29.601Z,82.09
2024-03-10T07:49:31.423Z,82.25
2024-03-10T07:52:33.200Z,82.52
2024-03-10T07:55:34.990Z,82.32
2024-03-10T07:58:36.817Z,83.16
2024-03-10T08:01:40.078Z,82.86
2024-03-10T08:04:41.953Z,82.79
2024-03-10T08:07:47.124Z,83.24
2024-03-10T08:10:50.874Z,82.01
2024-03-10T08:13:52.780Z,82.81
2024-03-10T08:16:56.048Z,81.85
2024-03-10T08:19:57.891Z,80.42
2024-03-10T08:22:59.736Z,81.21
2024-03-10T08:26:01.898Z,80.61
2024-03-10T08:29:03.945Z,79.27
2024-03-10T08:32:07.575Z,78.78
2024-03-10T08:35:13.247Z,79.66
2024-03-10T08:38:18.378Z,78.89
2024-03-10T08:41:20.349Z,78.73
2024-03-10T08:44:22.157Z,78.89
2024-03-10T08:47:25.281Z,78.00
2024-03-10T08:50:27.324Z,77.92
2024-03-10T08:53:29.137Z,78.33
2024-03-10T08:56:30.973Z,78.66
2024-03-10T08:59:33.194Z,80.15
2024-03-10T09:02:36.433Z,78.22
2024-03-10T09:05:38.443Z,78.46
2024-03-10T09:08:40.283Z,76.80
2024-03-10T09:11:42.185Z,77.02
2024-03-10T09:14:44.131Z,77.30
2024-03-10T09:17:47.685Z,77.21
2024-03-10T09:20:49.815Z,77.55
2024-03-10T09:23:51.574Z,79.07
2024-03-10T09:26:53.433Z,76.86
2024-03-10T09:29:55.200Z,76.87
2024-03-10T09:32:58.336Z,76.35
2024-03-10T09:36:00.098Z,77.11
2024-03-10T09:39:01.893Z,75.52
2024-03-10T09:42:04.214Z,74.78
2024-03-10T09:45:14.674Z,75.27
2024-03-10T09:48:18.293Z,75.91
2024-03-10T09:51:19.944Z,75.08
2024-03-10T09:54:21.702Z,74.33
2024-03-10T09:57:23.647Z,73.28
2024-03-10T10:00:26.948Z,72.77
2024-03-10T10:03:30.681Z,72.99
2024-03-10T10:06:32.852Z,72.42
2024-03-10T10:09:34.688Z,71.61
2024-03-10T10:12:36.436Z,71.67
2024-03-10T10:15:38.224Z,71.48
2024-03-10T10:18:51.195Z,70.78
2024-03-10T10:21:56.705Z,69.07
2024-03-10T10:25:01.988Z,68.06
2024-03-10T10:28:04.296Z,68.39
2024-03-10T10:31:09.964Z,67.98
2024-03-10T10:34:13.102Z,67.66
2024-03-10T10:37:14.861Z,67.92
2024-03-10T10:40:16.633Z,67.16
2024-03-10T10:43:18.719Z,67.31
2024-03-10T10:46:21.153Z,67.32
2024-03-10T10:49:24.618Z,66.93
2024-03-10T10:52:26.309Z,67.62
2024-03-10T10:55:28.583Z,67.24
2024-03-10T10:58:32.195Z,65.88
2024-03-10T11:01:33.950Z,66.54
2024-03-10T11:04:38.853Z,67.00
2024-03-10T11:07:43.540Z,66.59
2024-03-10T11:10:46.758Z,66.18
2024-03-10T11:13:48.648Z,65.45
2024-03-10T11:16:50.528Z,65.73
2024-03-10T11:19:54.838Z,65.28
2024-03-10T11:22:56.744Z,65.13
2024-03-10T11:26:02.853Z,65.09
2024-03-10T11:29:04.666Z,65.15
2024-03-10T11:32:27.402Z,65.48
2024-03-10T11:35:32.378Z,64.66
2024-03-10T11:38:34.705Z,64.19
2024-03-10T11:41:36.589Z,63.87
2024-03-10T11:44:38.480Z,63.68
2024-03-10T11:47:40.317Z,63.49
2024-03-10T11:50:43.475Z,63.23
2024-03-10T11:53:45.278Z,62.59
2024-03-10T11:56:51.586Z,62.49
2024-03-10T11:59:54.943Z,62.59
2024-03-10T12:02:57.240Z,61.93
2024-03-10T12:06:00.413Z,61.75
2024-03-10T12:09:02.392Z,60.88
2024-03-10T12:12:10.818Z,61.02
2024-03-10T12:15:16.454Z,59.44
2024-03-10T12:18:18.299Z,59.44
2024-03-10T12:21:21.462Z,59.71
2024-03-10T12:24:23.237Z,59.76
2024-03-10T12:27:24.960Z,59.81
2024-03-10T12:30:27.579Z,58.17
2024-03-10T12:33:29.425Z,58.62
2024-03-10T12:36:32.568Z,57.63
2024-03-10T12:39:34.446Z,58.89
2024-03-10T12:42:39.381Z,59.72
2024-03-10T12:45:41.566Z,59.12
2024-03-10T12:48:43.434Z,59.82
2024-03-10T12:51:46.613Z,59.05
2024-03-10T12:54:48.446Z,59.39
2024-03-10T12:57:50.205Z,60.12
2024-03-10T13:00:51.999Z,59.06
2024-03-10T13:03:53.781Z,58.86
2024-03-10T13:06:56.937Z,58.23
2024-03-10T13:09:58.696Z,57.76
2024-03-10T13:13:00.507Z,58.50
2024-03-10T13:16:02.369Z,58.19
2024-03-10T13:19:04.113Z,57.70
2024-03-10T13:22:07.217Z,58.93
2024-03-10T13:25:08.973Z,58.36
2024-03-10T13:28:10.773Z,58.18
2024-03-10T13:31:12.633Z,58.14
2024-03-10T13:34:14.368Z,58.77
2024-03-10T13:37:17.627Z,58.26
2024-03-10T13:40:19.690Z,58.27
2024-03-10T13:43:21.461Z,58.22
2024-03-10T13:46:23.198Z,58.95
2024-03-10T13:49:24.961Z,57.77
2024-03-10T13:52:28.088Z,57.27
2024-03-10T13:55:29.829Z,57.54
2024-03-10T13:58:31.592Z,57.09
2024-03-10T14:01:33.403Z,57.13
2024-03-10T14:04:35.474Z,58.26
2024-03-10T14:07:38.673Z,58.38
2024-03-10T14:10:40.440Z,58.31
2024-03-10T14:13:42.205Z,59.33
2024-03-10T14:16:45.078Z,58.99
2024-03-10T14:19:46.870Z,58.96
2024-03-10T14:22:49.981Z,58.78
2024-03-10T14:25:51.786Z,59.22
2024-03-10T14:28:53.661Z,59.99
2024-03-10T14:31:55.500Z,59.42
2024-03-10T14:34:57.309Z,60.42
2024-03-10T14:38:00.474Z,60.62
2024-03-10T14:41:02.456Z,60.52
2024-03-10T14:44:06.447Z,60.78
2024-03-10T14:47:09.369Z,61.14
2024-03-10T14:50:14.677Z,61.17
2024-03-10T14:53:17.838Z,61.93
2024-03-10T14:56:19.735Z,62.25
2024-03-10T14:59:21.493Z,62.71
2024-03-10T15:02:23.301Z,63.22
2024-03-10T15:05:25.325Z,62.95
2024-03-10T15:08:28.514Z,62.98
2024-03-10T15:11:30.413Z,63.31
2024-03-10T15:14:32.294Z,63.98
2024-03-10T15:17:34.375Z,63.97
2024-03-10T15:20:37.106Z,63.86
2024-03-10T15:23:40.352Z,64.55
2024-03-10T15:26:42.233Z,65.13
2024-03-10T15:29:44.090Z,64.62
2024-03-10T15:32:45.989Z,63.78
2024-03-10T15:35:47.795Z,62.74
2024-03-10T15:38:50.967Z,62.37
2024-03-10T15:41:53.280Z,62.50
2024-03-10T15:44:55.163Z,62.96
2024-03-10T15:47:57.267Z,63.95
2024-03-10T15:50:59.464Z,64.60
2024-03-10T15:54:02.616Z,65.69
2024-03-10T15:57:04.790Z,66.31
2024-03-10T16:00:07.775Z,67.02
2024-03-10T16:03:14.531Z,67.34
2024-03-10T16:06:16.347Z,68.71
2024-03-10T16:09:19.452Z,69.47
2024-03-10T16:12:21.309Z,71.14
2024-03-10T16:15:28.517Z,71.88
2024-03-10T16:18:32.624Z,72.94
2024-03-10T16:21:37.951Z,73.10
2024-03-10T16:24:41.149Z,74.11
2024-03-10T16:27:43.058Z,74.76
2024-03-10T16:30:45.033Z,75.97
2024-03-10T16:33:46.886Z,76.86
2024-03-10T16:36:48.685Z,76.52
2024-03-10T16:39:51.781Z,77.14
2024-03-10T16:42:53.524Z,77.40
2024-03-10T16:45:55.458Z,77.97
2024-03-10T16:48:57.328Z,77.74
2024-03-10T16:51:59.128Z,77.96
2024-03-10T16:55:02.294Z,78.11
2024-03-10T16:58:04.359Z,78.26
2024-03-10T17:01:06.123Z,78.29
2024-03-10T17:04:07.898Z,78.48
2024-03-10T17:07:09.655Z,78.78
2024-03-10T17:10:13.030Z,78.57
2024-03-10T17:13:14.740Z,78.40
2024-03-10T17:16:16.522Z,79.45
2024-03-10T17:19:18.270Z,79.26
2024-03-10T17:22:20.020Z,79.34
2024-03-10T17:25:23.177Z,80.01
2024-03-10T17:28:24.938Z,79.81
2024-03-10T17:31:26.728Z,79.90
2024-03-10T17:34:28.486Z,79.99
2024-03-10T17:37:30.276Z,80.26
2024-03-10T17:40:33.406Z,80.67
2024-03-10T17:43:35.196Z,80.67
2024-03-10T17:46:37.265Z,80.73
2024-03-10T17:49:41.226Z,80.80
2024-03-10T17:52:44.699Z,80.68
2024-03-10T17:55:47.826Z,81.01
2024-03-10T17:58:49.575Z,81.32
2024-03-10T18:01:51.339Z,80.81
2024-03-10T18:04:53.079Z,81.60
2024-03-10T18:07:54.873Z,81.04
2024-03-10T18:10:58.008Z,81.25
2024-03-10T18:13:59.772Z,81.31
2024-03-10T18:17:01.655Z,81.09
2024-03-10T18:20:03.913Z,81.63
2024-03-10T18:23:05.789Z,81.18
2024-03-10T18:26:09.013Z,81.12
2024-03-10T18:29:12.351Z,81.00
2024-03-10T18:32:15.502Z,81.22
2024-03-10T18:35:17.492Z,81.10
2024-03-10T18:38:19.458Z,81.26
2024-03-10T18:41:22.869Z,81.20
2024-03-10T18:44:24.908Z,80.75
2024-03-10T18:47:27.020Z,80.47
2024-03-10T18:50:28.868Z,80.30
2024-03-10T18:53:30.881Z,80.84
2024-03-10T18:56:34.160Z,80.08
2024-03-10T18:59:36.093Z,79.76
2024-03-10T19:02:38.012Z,79.75
2024-03-10T19:05:40.242Z,79.02
2024-03-10T19:08:42.135Z,79.29
2024-03-10T19:11:45.567Z,79.01
2024-03-10T19:14:47.469Z,78.89
2024-03-10T19:17:49.292Z,78.79
2024-03-10T19:20:51.160Z,78.40
2024-03-10T19:23:53.132Z,78.34
2024-03-10T19:26:56.438Z,78.41
2024-03-10T19:29:58.475Z,78.09
2024-03-10T19:33:00.473Z,78.03
2024-03-10T19:36:02.426Z,77.25
2024-03-10T19:39:04.335Z,77.79
2024-03-10T19:42:07.785Z,77.19
2024-03-10T19:45:10.360Z,77.31
2024-03-10T19:48:12.247Z,77.07
2024-03-10T19:51:14.228Z,77.07
2024-03-10T19:54:16.102Z,77.07
2024-03-10T19:57:19.943Z,76.86
2024-03-10T20:00:21.916Z,76.55
2024-03-10T20:03:23.672Z,76.90
2024-03-10T20:06:25.632Z,76.85
2024-03-10T20:09:27.500Z,77.06
2024-03-10T20:12:30.621Z,76.90
2024-03-10T20:15:32.486Z,77.08
2024-03-10T20:18:34.266Z,77.58
2024-03-10T20:21:36.174Z,77.55
2024-03-10T20:24:37.909Z,77.81
2024-03-10T20:27:41.778Z,78.07
2024-03-10T20:30:43.581Z,77.79
2024-03-10T20:33:45.351Z,78.48
2024-03-10T20:36:47.101Z,78.65
2024-03-10T20:39:48.829Z,79.25
2024-03-10T20:42:51.926Z,79.53
2024-03-10T20:45:59.527Z,80.12
2024-03-10T20:49:02.077Z,79.86
2024-03-10T20:52:04.111Z,80.09
2024-03-10T20:55:06.549Z,79.84
2024-03-10T20:58:09.668Z,79.17
2024-03-10T21:01:11.679Z,79.63
2024-03-10T21:04:13.996Z,79.65
2024-03-10T21:07:16.001Z,79.71
2024-03-10T21:10:17.908Z,79.55
2024-03-10T21:13:21.034Z,79.92
2024-03-10T21:16:22.869Z,80.28
2024-03-10T21:19:24.760Z,80.52
2024-03-10T21:22:26.509Z,79.98
2024-03-10T21:25:28.443Z,79.90
2024-03-10T21:28:31.761Z,79.94
2024-03-10T21:31:33.519Z,79.70
2024-03-10T21:34:36.528Z,79.87
2024-03-10T21:37:38.553Z,80.26
2024-03-10T21:40:40.327Z,80.52
2024-03-10T21:43:43.467Z,80.01
2024-03-10T21:46:45.382Z,80.20
2024-03-10T21:49:47.183Z,79.77
2024-03-10T21:52:49.135Z,79.60
2024-03-10T21:55:50.873Z,79.33
2024-03-10T21:58:53.986Z,79.32
2024-03-10T22:01:55.764Z,78.87
2024-03-10T22:04:57.525Z,78.30
2024-03-10T22:07:59.399Z,78.56
2024-03-10T22:11:01.262Z,78.48
2024-03-10T22:14:04.654Z,78.45
2024-03-10T22:17:06.459Z,78.08
2024-03-10T22:20:09.071Z,77.90
2024-03-10T22:23:10.898Z,77.87
2024-03-10T22:26:12.722Z,77.54
2024-03-10T22:29:15.972Z,77.71
2024-03-10T22:32:17.818Z,77.34
2024-03-10T22:35:19.736Z,76.56
2024-03-10T22:38:21.720Z,76.69
2024-03-10T22:41:23.574Z,76.83
2024-03-10T22:44:26.756Z,76.48
2024-03-10T22:47:28.552Z,76.41
2024-03-10T22:50:30.653Z,76.54
2024-03-10T22:53:32.672Z,76.61
2024-03-10T22:56:34.531Z,76.53
2024-03-10T22:59:37.741Z,76.27
2024-03-10T23:02:39.553Z,76.46
2024-03-10T23:05:42.074Z,76.24
2024-03-10T23:08:43.859Z,76.17
2024-03-10T23:11:45.747Z,76.21
2024-03-10T23:14:48.978Z,75.86
2024-03-10T23:17:50.814Z,75.98
2024-03-10T23:20:53.268Z,75.88
2024-03-10T23:23:55.055Z,75.81
2024-03-10T23:26:58.307Z,75.68
2024-03-10T23:30:03.143Z,75.75
2024-03-10T23:33:05.515Z,75.86
2024-03-10T23:36:07.844Z,75.79
2024-03-10T23:39:09.602Z,75.96
2024-03-10T23:42:11.478Z,75.87
2024-03-10T23:45:14.633Z,75.46
2024-03-10T23:48:16.508Z,75.09
2024-03-10T23:51:18.277Z,75.30
2024-03-10T23:54:20.014Z,75.30
2024-03-10T23:57:21.801Z,75.18
